Pisgah, Missouri
Current Conditions -  °F | °C
As of 7:55 PM on Saturday 22 Nov 2014 (Local Time) from KVER Reporting Station
Scattered Clouds Scattered Clouds  
Wind Chill: 55°   Ceiling: Unl
Heat Index: 55°   Visibility: 10mi
Dew Point: 51°   Wind: 8mph
Humidity: 87%   Direction: 160°SSE
Pressure: 29.82"   Gusts: NA
Location:  38.7427°N, 92.7977°W
Report Text: KVER 230155Z AUTO 16007KT 10SM SCT015 13/11 A2982 RMK AO2 T01260105
Loading
Personal Weather Stations






























Interactive Weather Map New forecast layout! Learn more

10-Day Weather Forecast

Advertisements
Track Severe Weather on mobile